Time;durP1;ratioP1;P1;durP2;ratioP2;P2;SDS_P1;SDS_P2;PMS_P1;PMS_P2;Temp;Humidity;BMP_temperature;BMP_pressure;BME280_temperature;BME280_humidity;BME280_pressure;Samples;Min_cycle;Max_cycle;Signal;HPM_P1;HPM_P2
2022/01/02 00:00:16;;;;;;;;;;;10.00;99.90;;;;;;5030533;28;19970;-72
2022/01/02 00:02:42;;;;;;;;;;;10.00;99.90;;;;;;5048165;28;19967;-72
2022/01/02 00:05:08;;;;;;;;;;;10.00;99.90;;;;;;5052235;28;19917;-72
2022/01/02 00:07:41;;;;;;;;;;;9.90;99.90;;;;;;5051116;28;20372;-72
2022/01/02 00:10:07;;;;;;;;;;;10.00;99.90;;;;;;5045933;28;19913;-72
2022/01/02 00:12:33;;;;;;;;;;;10.00;99.90;;;;;;5049037;28;19913;-72
2022/01/02 00:15:01;;;;;;;;;;;10.00;99.90;;;;;;5055115;28;19928;-72
2022/01/02 00:17:29;;;;;;;;;;;10.00;99.90;;;;;;5049145;28;20454;-72
2022/01/02 00:19:57;;;;;;;;;;;10.00;99.90;;;;;;5063425;28;19917;-72
2022/01/02 00:22:29;;;;;;;;;;;10.00;99.90;;;;;;5048139;28;20266;-72
2022/01/02 00:24:56;;;;;;;;;;;10.00;99.90;;;;;;5043520;28;19913;-72
2022/01/02 00:27:22;;;;;;;;;;;10.00;99.90;;;;;;5046162;28;20574;-72
2022/01/02 00:29:48;;;;;;;;;;;10.00;99.90;;;;;;5046288;28;19970;-72
2022/01/02 00:32:13;;;;;;;;;;;10.00;99.90;;;;;;5048368;28;19991;-72
2022/01/02 00:34:39;;;;;;;;;;;10.00;99.90;;;;;;5045191;28;20356;-72
2022/01/02 00:37:06;;;;;;;;;;;10.00;99.90;;;;;;5049326;28;20337;-72
2022/01/02 00:39:31;;;;;;;;;;;10.00;99.90;;;;;;5049036;28;20357;-72
2022/01/02 00:42:01;;;;;;;;;;;10.00;99.90;;;;;;5052715;28;19919;-72
2022/01/02 00:44:28;;;;;;;;;;;10.00;99.90;;;;;;5053344;28;19913;-72
2022/01/02 00:47:12;;;;;;;;;;;10.00;99.90;;;;;;5049205;28;20006;-72
2022/01/02 00:49:39;;;;;;;;;;;10.00;99.90;;;;;;5059314;28;19955;-72
2022/01/02 00:52:08;;;;;;;;;;;10.00;99.90;;;;;;5050140;28;19924;-72
2022/01/02 00:54:36;;;;;;;;;;;10.00;99.90;;;;;;5055540;28;19919;-72
2022/01/02 00:57:15;;;;;;;;;;;10.00;99.90;;;;;;5048884;28;19964;-72
2022/01/02 00:59:45;;;;;;;;;;;9.90;99.90;;;;;;5065664;28;19909;-72
2022/01/02 01:02:14;;;;;;;;;;;10.00;99.90;;;;;;5048500;28;19978;-72
2022/01/02 01:04:41;;;;;;;;;;;10.00;99.90;;;;;;5049586;28;19920;-72
2022/01/02 01:07:07;;;;;;;;;;;10.00;99.90;;;;;;5049736;28;19917;-72
2022/01/02 01:09:33;;;;;;;;;;;10.00;99.90;;;;;;5050180;28;19962;-73
2022/01/02 01:11:59;;;;;;;;;;;10.00;99.90;;;;;;5051562;28;19952;-72
2022/01/02 01:14:25;;;;;;;;;;;10.00;99.90;;;;;;5055424;28;19913;-72
2022/01/02 01:16:51;;;;;;;;;;;10.00;99.90;;;;;;5048625;28;19912;-72
2022/01/02 01:19:17;;;;;;;;;;;10.00;99.90;;;;;;5048682;28;19985;-72
2022/01/02 01:21:42;;;;;;;;;;;10.00;99.90;;;;;;5047618;28;20530;-72
2022/01/02 01:24:08;;;;;;;;;;;10.00;99.90;;;;;;5059880;28;19909;-72
2022/01/02 01:26:34;;;;;;;;;;;10.00;99.90;;;;;;5064646;28;20386;-72
2022/01/02 01:29:00;;;;;;;;;;;10.00;99.90;;;;;;5058351;28;19956;-72
2022/01/02 01:31:25;;;;;;;;;;;10.00;99.90;;;;;;5050105;28;19913;-72
2022/01/02 01:33:51;;;;;;;;;;;10.00;99.90;;;;;;5052384;28;19915;-72
2022/01/02 01:36:16;;;;;;;;;;;10.00;99.90;;;;;;5031945;28;20483;-72
2022/01/02 01:38:42;;;;;;;;;;;10.00;99.90;;;;;;5063263;28;20047;-72
2022/01/02 01:41:11;;;;;;;;;;;10.10;99.90;;;;;;5050091;28;20111;-72
2022/01/02 01:43:52;;;;;;;;;;;10.10;99.90;;;;;;5049873;28;19912;-72
2022/01/02 01:46:17;;;;;;;;;;;10.10;99.90;;;;;;5050448;28;19978;-72
2022/01/02 01:48:55;;;;;;;;;;;10.10;99.90;;;;;;5065085;28;20393;-72
2022/01/02 01:51:21;;;;;;;;;;;10.10;99.90;;;;;;5050164;28;21242;-72
2022/01/02 01:53:46;;;;;;;;;;;10.10;99.90;;;;;;5051020;28;19916;-72
2022/01/02 01:56:12;;;;;;;;;;;10.10;99.90;;;;;;5050517;28;20394;-72
2022/01/02 01:58:37;;;;;;;;;;;10.10;99.90;;;;;;5048884;28;19913;-72
2022/01/02 02:01:03;;;;;;;;;;;10.10;99.90;;;;;;5049712;28;20354;-72
2022/01/02 02:03:28;;;;;;;;;;;10.10;99.90;;;;;;5047270;28;19913;-72
2022/01/02 02:05:54;;;;;;;;;;;10.10;99.90;;;;;;5051760;28;19932;-72
2022/01/02 02:08:24;;;;;;;;;;;10.10;99.90;;;;;;5048907;28;19921;-72
2022/01/02 02:10:55;;;;;;;;;;;10.10;99.90;;;;;;5050785;28;20327;-72
2022/01/02 02:13:21;;;;;;;;;;;10.10;99.90;;;;;;5048549;28;19939;-72
2022/01/02 02:15:46;;;;;;;;;;;10.20;99.90;;;;;;5052645;28;20247;-72
2022/01/02 02:18:12;;;;;;;;;;;10.10;99.90;;;;;;5050025;28;19913;-72
2022/01/02 02:20:37;;;;;;;;;;;10.10;99.90;;;;;;5048874;28;20328;-72
2022/01/02 02:23:03;;;;;;;;;;;10.10;99.90;;;;;;5050986;28;19992;-72
2022/01/02 02:25:30;;;;;;;;;;;10.10;99.90;;;;;;5050227;28;19913;-72
2022/01/02 02:27:59;;;;;;;;;;;10.20;99.90;;;;;;5051768;28;20285;-72
2022/01/02 02:30:26;;;;;;;;;;;10.20;99.90;;;;;;5045277;28;19956;-72
2022/01/02 02:32:56;;;;;;;;;;;10.20;99.90;;;;;;5049535;28;20404;-72
2022/01/02 02:35:22;;;;;;;;;;;10.20;99.90;;;;;;5046755;28;19913;-72
2022/01/02 02:37:48;;;;;;;;;;;10.20;99.90;;;;;;5051677;28;20003;-72
2022/01/02 02:40:14;;;;;;;;;;;10.20;99.90;;;;;;5051533;28;20419;-72
2022/01/02 02:42:51;;;;;;;;;;;;;;;;;;;;;
2022/01/02 02:51:03;;;;;;;;;;;10.20;99.90;;;;;;5048293;28;20338;-72
2022/01/02 02:53:29;;;;;;;;;;;10.20;99.90;;;;;;5057589;28;20320;-72
2022/01/02 02:55:57;;;;;;;;;;;10.20;99.90;;;;;;5048499;28;20016;-72
2022/01/02 03:01:02;;;;;;;;;;;10.20;99.90;;;;;;5046838;28;20583;-72
2022/01/02 03:03:28;;;;;;;;;;;10.20;99.80;;;;;;5051143;28;20250;-72
2022/01/02 03:05:53;;;;;;;;;;;10.20;99.90;;;;;;5044238;28;19923;-72
2022/01/02 03:08:19;;;;;;;;;;;10.20;99.90;;;;;;5051193;28;19963;-72
2022/01/02 03:10:44;;;;;;;;;;;10.20;99.90;;;;;;5045454;28;19909;-72
2022/01/02 03:13:10;;;;;;;;;;;10.20;99.90;;;;;;5050783;28;19917;-72
2022/01/02 03:15:36;;;;;;;;;;;10.20;99.90;;;;;;5064585;28;20354;-72
2022/01/02 03:18:01;;;;;;;;;;;10.20;99.90;;;;;;5046597;28;19963;-72
2022/01/02 03:20:27;;;;;;;;;;;10.20;99.90;;;;;;5065524;28;19966;-72
2022/01/02 03:22:52;;;;;;;;;;;10.20;99.90;;;;;;5048554;28;21290;-73
2022/01/02 03:25:18;;;;;;;;;;;10.20;99.90;;;;;;5029706;28;19952;-72
2022/01/02 03:27:44;;;;;;;;;;;10.20;99.90;;;;;;5050298;28;19912;-72
2022/01/02 03:30:12;;;;;;;;;;;10.20;99.90;;;;;;5051304;28;19916;-72
2022/01/02 03:32:38;;;;;;;;;;;10.30;99.90;;;;;;5048052;28;20374;-72
2022/01/02 03:35:04;;;;;;;;;;;10.20;99.80;;;;;;5048475;28;19924;-72
2022/01/02 03:37:32;;;;;;;;;;;10.20;99.90;;;;;;5047387;28;19921;-72
2022/01/02 03:39:58;;;;;;;;;;;10.20;99.90;;;;;;5050300;28;19912;-72
2022/01/02 03:42:24;;;;;;;;;;;10.20;99.90;;;;;;5029988;28;19920;-72
2022/01/02 03:44:49;;;;;;;;;;;10.20;99.90;;;;;;5048721;28;21420;-72
2022/01/02 03:47:15;;;;;;;;;;;10.20;99.90;;;;;;5047476;28;20482;-72
2022/01/02 03:49:40;;;;;;;;;;;10.20;99.90;;;;;;5048563;28;19921;-72
2022/01/02 03:52:06;;;;;;;;;;;10.20;99.90;;;;;;5047247;28;20349;-72
2022/01/02 03:54:32;;;;;;;;;;;10.20;99.90;;;;;;5050177;28;19923;-72
2022/01/02 03:56:57;;;;;;;;;;;10.20;99.90;;;;;;5044243;28;19909;-72
2022/01/02 03:59:23;;;;;;;;;;;10.20;99.90;;;;;;5047279;28;19913;-72
2022/01/02 04:01:48;;;;;;;;;;;10.30;99.90;;;;;;5046874;28;19909;-72
2022/01/02 04:04:14;;;;;;;;;;;10.30;99.90;;;;;;5044266;28;19967;-72
2022/01/02 04:06:39;;;;;;;;;;;10.30;99.90;;;;;;5029935;28;19983;-72
2022/01/02 04:09:05;;;;;;;;;;;10.20;99.90;;;;;;5047230;28;19921;-72
2022/01/02 04:11:30;;;;;;;;;;;10.20;99.90;;;;;;5048842;28;19924;-72
2022/01/02 04:13:56;;;;;;;;;;;10.20;99.80;;;;;;5046757;28;19913;-72
2022/01/02 04:16:21;;;;;;;;;;;10.20;99.90;;;;;;5050124;28;20304;-72
2022/01/02 04:18:47;;;;;;;;;;;10.30;99.90;;;;;;5047234;28;19913;-72
2022/01/02 04:21:12;;;;;;;;;;;10.30;99.90;;;;;;5046955;28;19952;-72
2022/01/02 04:23:38;;;;;;;;;;;10.20;99.90;;;;;;5045670;28;20345;-72
2022/01/02 04:26:04;;;;;;;;;;;10.30;99.90;;;;;;5048939;28;19963;-72
2022/01/02 04:28:29;;;;;;;;;;;10.20;99.90;;;;;;5041360;28;19931;-72
2022/01/02 04:30:55;;;;;;;;;;;10.20;99.90;;;;;;5049346;28;19987;-72
2022/01/02 04:33:20;;;;;;;;;;;10.20;99.90;;;;;;5042872;28;19913;-72
2022/01/02 04:35:46;;;;;;;;;;;10.20;99.90;;;;;;5031484;28;19947;-72
2022/01/02 04:38:13;;;;;;;;;;;10.20;99.90;;;;;;5049454;28;20492;-72
2022/01/02 04:40:39;;;;;;;;;;;10.20;99.90;;;;;;5046334;28;19917;-72
2022/01/02 04:43:04;;;;;;;;;;;10.20;99.90;;;;;;5059139;28;19919;-72
2022/01/02 04:45:30;;;;;;;;;;;10.20;99.90;;;;;;5047017;28;19921;-72
2022/01/02 04:47:55;;;;;;;;;;;10.20;99.90;;;;;;5050211;28;20468;-72
2022/01/02 04:50:21;;;;;;;;;;;10.20;99.90;;;;;;5046900;28;20011;-72
2022/01/02 04:52:46;;;;;;;;;;;10.20;99.90;;;;;;5059492;28;19935;-72
2022/01/02 04:55:12;;;;;;;;;;;10.30;99.90;;;;;;5028092;28;19916;-72
2022/01/02 04:57:37;;;;;;;;;;;10.20;99.90;;;;;;5050294;28;19948;-72
2022/01/02 05:00:04;;;;;;;;;;;10.20;99.90;;;;;;5029864;28;19962;-72
2022/01/02 05:02:29;;;;;;;;;;;10.20;99.90;;;;;;5045095;28;20666;-72
2022/01/02 05:04:55;;;;;;;;;;;10.20;99.90;;;;;;5044598;28;19921;-72
2022/01/02 05:07:20;;;;;;;;;;;10.20;99.90;;;;;;5046742;28;19909;-72
2022/01/02 05:09:45;;;;;;;;;;;10.20;99.90;;;;;;5045791;28;19971;-72
2022/01/02 05:12:11;;;;;;;;;;;10.20;99.90;;;;;;5043417;28;19999;-72
2022/01/02 05:14:37;;;;;;;;;;;10.20;99.90;;;;;;5047384;28;20365;-72
2022/01/02 05:17:02;;;;;;;;;;;10.20;99.90;;;;;;5050273;28;19917;-72
2022/01/02 05:19:28;;;;;;;;;;;10.20;99.90;;;;;;5029723;28;19921;-72
2022/01/02 05:21:53;;;;;;;;;;;10.20;99.90;;;;;;5059741;28;19968;-72
2022/01/02 05:24:19;;;;;;;;;;;10.20;99.90;;;;;;5051638;28;19912;-72
2022/01/02 05:26:44;;;;;;;;;;;10.20;99.90;;;;;;5049749;28;19920;-72
2022/01/02 05:29:10;;;;;;;;;;;10.20;99.90;;;;;;5052451;28;20007;-72
2022/01/02 05:31:35;;;;;;;;;;;10.20;99.90;;;;;;5050516;28;20368;-72
2022/01/02 05:34:01;;;;;;;;;;;10.20;99.90;;;;;;5051815;28;19924;-72
2022/01/02 05:36:26;;;;;;;;;;;10.20;99.90;;;;;;5049115;28;19978;-72
2022/01/02 05:38:52;;;;;;;;;;;10.20;99.90;;;;;;5052155;28;20019;-72
2022/01/02 05:41:18;;;;;;;;;;;10.20;99.90;;;;;;5048980;28;19921;-72
2022/01/02 05:43:44;;;;;;;;;;;10.20;99.90;;;;;;5052504;28;19913;-72
2022/01/02 05:46:09;;;;;;;;;;;10.20;99.90;;;;;;5052401;28;20663;-73
2022/01/02 05:48:36;;;;;;;;;;;10.10;99.90;;;;;;5049192;28;20038;-72
2022/01/02 05:51:02;;;;;;;;;;;10.20;99.90;;;;;;5052392;28;19917;-72
2022/01/02 05:53:28;;;;;;;;;;;10.20;99.90;;;;;;5052893;28;19913;-72
2022/01/02 05:55:54;;;;;;;;;;;10.20;99.90;;;;;;5066980;28;19917;-72
2022/01/02 05:58:19;;;;;;;;;;;10.20;99.90;;;;;;5049822;28;19924;-72
2022/01/02 06:00:45;;;;;;;;;;;10.20;99.90;;;;;;5035708;28;19998;-72
2022/01/02 06:03:10;;;;;;;;;;;10.20;99.90;;;;;;5049557;28;19917;-72
2022/01/02 06:05:36;;;;;;;;;;;10.20;99.90;;;;;;5049621;28;19924;-72
2022/01/02 06:08:02;;;;;;;;;;;10.10;99.90;;;;;;5052525;28;19928;-72
2022/01/02 06:10:28;;;;;;;;;;;10.10;99.90;;;;;;5036003;28;19916;-72
2022/01/02 06:12:53;;;;;;;;;;;10.20;99.90;;;;;;5039784;28;19916;-72
2022/01/02 06:15:19;;;;;;;;;;;10.10;99.90;;;;;;5051528;28;19917;-72
2022/01/02 06:17:44;;;;;;;;;;;10.10;99.90;;;;;;5054186;28;19917;-72
2022/01/02 06:20:10;;;;;;;;;;;10.20;99.90;;;;;;5050931;28;19917;-72
2022/01/02 06:22:35;;;;;;;;;;;10.10;99.90;;;;;;5047750;28;19920;-72
2022/01/02 06:25:01;;;;;;;;;;;10.20;99.90;;;;;;5048576;28;20358;-72
2022/01/02 06:27:26;;;;;;;;;;;10.20;99.90;;;;;;5051837;28;19917;-72
2022/01/02 06:29:52;;;;;;;;;;;10.10;99.90;;;;;;5047410;28;19913;-72
2022/01/02 06:32:17;;;;;;;;;;;10.10;99.90;;;;;;5050822;28;19913;-72
2022/01/02 06:34:46;;;;;;;;;;;10.10;99.90;;;;;;5031480;28;19920;-72
2022/01/02 06:37:12;;;;;;;;;;;10.10;99.90;;;;;;5051258;28;20492;-72
2022/01/02 06:39:37;;;;;;;;;;;10.10;99.90;;;;;;5048286;28;19917;-72
2022/01/02 06:42:03;;;;;;;;;;;10.10;99.90;;;;;;5061916;28;19967;-72
2022/01/02 06:44:28;;;;;;;;;;;10.10;99.90;;;;;;5048751;28;20404;-72
2022/01/02 06:46:54;;;;;;;;;;;10.10;99.90;;;;;;5053300;28;20006;-72
2022/01/02 06:49:19;;;;;;;;;;;10.10;99.90;;;;;;5049621;28;19925;-72
2022/01/02 06:51:45;;;;;;;;;;;10.10;99.90;;;;;;5053356;28;19927;-72
2022/01/02 06:54:10;;;;;;;;;;;10.10;99.90;;;;;;5048963;28;19917;-72
2022/01/02 06:56:36;;;;;;;;;;;10.10;99.90;;;;;;5049319;28;19909;-72
2022/01/02 06:59:02;;;;;;;;;;;10.10;99.90;;;;;;5045729;28;20007;-72
2022/01/02 07:01:27;;;;;;;;;;;10.10;99.90;;;;;;5050333;28;19919;-72
2022/01/02 07:03:52;;;;;;;;;;;10.10;99.90;;;;;;5050137;28;19919;-72
2022/01/02 07:06:18;;;;;;;;;;;10.10;99.90;;;;;;5048393;28;19919;-72
2022/01/02 07:08:43;;;;;;;;;;;10.10;99.90;;;;;;5048778;28;19924;-72
2022/01/02 07:11:11;;;;;;;;;;;10.10;99.90;;;;;;5048053;28;19966;-72
2022/01/02 07:13:38;;;;;;;;;;;10.10;99.90;;;;;;5047747;28;19958;-72
2022/01/02 07:16:04;;;;;;;;;;;10.10;99.90;;;;;;5047842;28;19917;-72
2022/01/02 07:18:29;;;;;;;;;;;10.10;99.90;;;;;;5048158;28;19979;-72
2022/01/02 07:20:55;;;;;;;;;;;10.10;99.90;;;;;;5047888;28;19917;-72
2022/01/02 07:23:20;;;;;;;;;;;10.10;99.90;;;;;;5053525;28;19917;-72
2022/01/02 07:25:46;;;;;;;;;;;10.10;99.90;;;;;;5048349;28;19917;-72
2022/01/02 07:28:11;;;;;;;;;;;10.00;99.90;;;;;;5031369;28;19923;-72
2022/01/02 07:30:37;;;;;;;;;;;10.00;99.90;;;;;;5048344;28;19924;-73
2022/01/02 07:33:02;;;;;;;;;;;10.00;99.90;;;;;;5048742;28;19921;-73
2022/01/02 07:35:28;;;;;;;;;;;10.00;99.90;;;;;;5046475;28;20328;-72
2022/01/02 07:37:54;;;;;;;;;;;10.00;99.90;;;;;;5045282;28;19917;-72
2022/01/02 07:40:19;;;;;;;;;;;10.00;99.90;;;;;;5048293;28;20290;-72
2022/01/02 07:42:45;;;;;;;;;;;10.00;99.90;;;;;;5047393;28;19912;-72
2022/01/02 07:45:12;;;;;;;;;;;10.00;99.90;;;;;;5050415;28;20328;-72
2022/01/02 07:47:38;;;;;;;;;;;10.00;99.90;;;;;;5030424;28;19948;-72
2022/01/02 07:50:03;;;;;;;;;;;10.00;99.90;;;;;;5029760;28;20343;-72
2022/01/02 07:52:29;;;;;;;;;;;10.00;99.90;;;;;;5028179;28;19919;-72
2022/01/02 07:54:54;;;;;;;;;;;10.00;99.90;;;;;;5049988;28;19916;-72
2022/01/02 07:57:20;;;;;;;;;;;10.00;99.90;;;;;;5045547;28;19920;-72
2022/01/02 07:59:45;;;;;;;;;;;10.00;99.90;;;;;;5047746;28;19967;-72
2022/01/02 08:02:11;;;;;;;;;;;10.00;99.90;;;;;;5053160;28;19973;-72
2022/01/02 08:04:36;;;;;;;;;;;10.00;99.90;;;;;;5049651;28;19913;-72
2022/01/02 08:07:02;;;;;;;;;;;10.00;99.90;;;;;;5046366;28;20984;-72
2022/01/02 08:09:27;;;;;;;;;;;10.00;99.90;;;;;;5049280;28;20316;-72
2022/01/02 08:11:53;;;;;;;;;;;10.00;99.90;;;;;;5046144;28;19970;-72
2022/01/02 08:14:19;;;;;;;;;;;10.00;99.90;;;;;;5049483;28;19905;-72
2022/01/02 08:16:45;;;;;;;;;;;10.00;99.90;;;;;;5047932;28;19916;-72
2022/01/02 08:19:10;;;;;;;;;;;10.00;99.90;;;;;;5030170;28;19909;-72
2022/01/02 08:21:36;;;;;;;;;;;10.00;99.90;;;;;;5057063;28;19909;-72
2022/01/02 08:24:02;;;;;;;;;;;10.00;99.90;;;;;;5047254;28;20049;-72
2022/01/02 08:26:27;;;;;;;;;;;10.00;99.90;;;;;;5049172;28;19913;-72
2022/01/02 08:28:53;;;;;;;;;;;10.00;99.90;;;;;;5047246;28;20019;-72
2022/01/02 08:31:18;;;;;;;;;;;10.00;99.90;;;;;;5066460;28;19909;-72
2022/01/02 08:33:44;;;;;;;;;;;10.00;99.90;;;;;;5044742;28;19928;-72
2022/01/02 08:36:09;;;;;;;;;;;10.00;99.90;;;;;;5049271;28;19913;-72
2022/01/02 08:38:35;;;;;;;;;;;10.00;99.90;;;;;;5043724;28;19913;-72
2022/01/02 08:41:00;;;;;;;;;;;10.00;99.90;;;;;;5048822;28;19925;-72
2022/01/02 08:43:26;;;;;;;;;;;10.00;99.90;;;;;;5043880;28;19917;-72
2022/01/02 08:45:51;;;;;;;;;;;10.00;99.90;;;;;;5041087;28;19921;-72
2022/01/02 08:48:17;;;;;;;;;;;10.00;99.90;;;;;;5044157;28;19951;-72
2022/01/02 08:50:43;;;;;;;;;;;10.00;99.90;;;;;;5049954;28;19912;-72
2022/01/02 08:53:08;;;;;;;;;;;10.00;99.90;;;;;;5047035;28;20386;-72
2022/01/02 08:55:35;;;;;;;;;;;10.00;99.90;;;;;;5047718;28;19915;-72
2022/01/02 08:58:01;;;;;;;;;;;10.00;99.90;;;;;;5050898;28;19924;-72
2022/01/02 09:00:26;;;;;;;;;;;10.00;99.90;;;;;;5047641;28;19917;-72
2022/01/02 09:02:52;;;;;;;;;;;10.00;99.90;;;;;;5053877;28;20507;-72
2022/01/02 09:05:18;;;;;;;;;;;10.10;99.90;;;;;;5050375;28;20011;-72
2022/01/02 09:07:44;;;;;;;;;;;10.10;99.90;;;;;;5054575;28;19921;-72
2022/01/02 09:10:10;;;;;;;;;;;10.10;99.90;;;;;;5051035;28;20396;-72
2022/01/02 09:12:35;;;;;;;;;;;10.10;99.90;;;;;;5048567;28;19913;-72
2022/01/02 09:15:01;;;;;;;;;;;10.10;99.90;;;;;;5047080;28;19923;-72
2022/01/02 09:17:26;;;;;;;;;;;10.10;99.90;;;;;;5050055;28;19923;-72
2022/01/02 09:19:52;;;;;;;;;;;10.10;99.90;;;;;;5048554;28;20850;-72
2022/01/02 09:22:18;;;;;;;;;;;10.10;99.90;;;;;;5053754;28;19947;-72
2022/01/02 09:24:44;;;;;;;;;;;10.10;99.90;;;;;;5034414;28;19966;-72
2022/01/02 09:27:09;;;;;;;;;;;10.10;99.90;;;;;;5051309;28;19967;-72
2022/01/02 09:29:35;;;;;;;;;;;10.10;99.90;;;;;;5052830;28;19920;-72
2022/01/02 09:32:02;;;;;;;;;;;10.10;99.90;;;;;;5049663;28;20289;-72
2022/01/02 09:34:27;;;;;;;;;;;10.10;99.90;;;;;;5051658;28;20362;-72
2022/01/02 09:36:53;;;;;;;;;;;10.10;99.90;;;;;;5051074;28;19962;-72
2022/01/02 09:39:18;;;;;;;;;;;10.10;99.90;;;;;;5054428;28;19958;-72
2022/01/02 09:41:43;;;;;;;;;;;10.10;99.90;;;;;;5046070;28;19917;-72
2022/01/02 09:44:09;;;;;;;;;;;10.10;99.90;;;;;;5034834;28;20390;-72
2022/01/02 09:46:37;;;;;;;;;;;10.10;99.90;;;;;;5043356;28;19916;-72
2022/01/02 09:49:03;;;;;;;;;;;10.10;99.80;;;;;;5049376;28;19912;-72
2022/01/02 09:51:28;;;;;;;;;;;10.20;99.80;;;;;;5047972;28;19912;-72
2022/01/02 09:53:54;;;;;;;;;;;10.20;99.80;;;;;;5051032;28;19956;-72
2022/01/02 09:56:21;;;;;;;;;;;10.10;99.70;;;;;;5038190;28;19917;-72
2022/01/02 09:58:46;;;;;;;;;;;10.10;99.70;;;;;;5051680;28;19966;-72
2022/01/02 10:01:14;;;;;;;;;;;10.10;99.70;;;;;;5047394;28;19921;-72
2022/01/02 10:03:44;;;;;;;;;;;10.20;99.60;;;;;;5050484;28;19913;-72
2022/01/02 10:06:10;;;;;;;;;;;10.20;99.60;;;;;;5070991;28;19913;-72
2022/01/02 10:08:36;;;;;;;;;;;10.20;99.60;;;;;;5048399;28;20003;-72
2022/01/02 10:11:15;;;;;;;;;;;10.20;99.60;;;;;;5044641;28;20393;-72
2022/01/02 10:13:42;;;;;;;;;;;10.20;99.60;;;;;;5047717;28;20615;-72
2022/01/02 10:16:20;;;;;;;;;;;10.20;99.50;;;;;;5043937;28;19917;-72
2022/01/02 10:18:46;;;;;;;;;;;10.20;99.40;;;;;;5047120;28;19913;-72
2022/01/02 10:21:25;;;;;;;;;;;10.20;99.40;;;;;;5047104;28;20313;-72
2022/01/02 10:24:07;;;;;;;;;;;10.30;99.40;;;;;;5047856;28;19916;-72
2022/01/02 10:26:33;;;;;;;;;;;10.30;99.30;;;;;;5032266;28;19944;-72
2022/01/02 10:29:02;;;;;;;;;;;10.30;99.40;;;;;;5047359;28;19982;-72
2022/01/02 10:31:34;;;;;;;;;;;10.30;99.30;;;;;;5044267;28;19954;-72
2022/01/02 10:33:59;;;;;;;;;;;10.30;99.30;;;;;;5047633;28;20381;-72
2022/01/02 10:36:29;;;;;;;;;;;10.40;99.20;;;;;;5035607;28;20000;-72
2022/01/02 10:39:03;;;;;;;;;;;10.40;99.10;;;;;;5045394;28;19963;-72
2022/01/02 10:41:33;;;;;;;;;;;10.50;99.00;;;;;;5043421;28;19913;-72
2022/01/02 10:44:15;;;;;;;;;;;10.50;99.00;;;;;;5030966;28;19924;-72
2022/01/02 10:47:01;;;;;;;;;;;10.50;99.00;;;;;;5044496;28;19917;-72
2022/01/02 10:49:45;;;;;;;;;;;10.50;99.10;;;;;;5043936;28;20008;-72
2022/01/02 10:52:24;;;;;;;;;;;10.50;99.20;;;;;;5047649;28;19923;-72
2022/01/02 10:54:50;;;;;;;;;;;10.50;99.20;;;;;;5049238;28;19912;-72
2022/01/02 10:57:16;;;;;;;;;;;10.50;99.20;;;;;;5046884;28;20350;-72
2022/01/02 10:59:42;;;;;;;;;;;10.50;99.10;;;;;;5048590;28;19919;-72
2022/01/02 11:02:09;;;;;;;;;;;10.50;99.10;;;;;;5052931;28;20001;-72
2022/01/02 11:04:36;;;;;;;;;;;10.60;99.10;;;;;;5049094;28;19916;-72
2022/01/02 11:07:02;;;;;;;;;;;10.60;98.90;;;;;;5031537;28;19912;-72
2022/01/02 11:09:28;;;;;;;;;;;10.70;98.90;;;;;;5047639;28;19917;-72
2022/01/02 11:11:53;;;;;;;;;;;10.70;98.80;;;;;;5050108;28;19913;-72
2022/01/02 11:14:19;;;;;;;;;;;10.70;98.80;;;;;;5046901;28;19937;-72
2022/01/02 11:16:45;;;;;;;;;;;10.70;98.80;;;;;;5045949;28;20354;-72
2022/01/02 11:19:11;;;;;;;;;;;10.70;98.80;;;;;;5048036;28;19909;-72
2022/01/02 11:21:40;;;;;;;;;;;10.80;98.70;;;;;;5047105;28;19920;-72
2022/01/02 11:24:20;;;;;;;;;;;10.80;98.70;;;;;;5051052;28;20385;-72
2022/01/02 11:26:49;;;;;;;;;;;10.80;98.70;;;;;;5030472;28;19919;-72
2022/01/02 11:29:15;;;;;;;;;;;10.80;98.80;;;;;;5032698;28;19924;-72
2022/01/02 11:31:43;;;;;;;;;;;10.80;98.80;;;;;;5041957;28;19916;-72
2022/01/02 11:34:27;;;;;;;;;;;10.80;98.80;;;;;;5049223;28;19928;-72
2022/01/02 11:37:13;;;;;;;;;;;10.90;98.80;;;;;;5043088;28;19967;-72
2022/01/02 11:39:52;;;;;;;;;;;10.80;98.90;;;;;;5048090;28;19913;-72
2022/01/02 11:42:38;;;;;;;;;;;10.80;98.90;;;;;;5046565;28;19923;-72
2022/01/02 11:45:10;;;;;;;;;;;10.80;98.90;;;;;;5050647;28;19920;-72
2022/01/02 11:47:42;;;;;;;;;;;10.90;98.90;;;;;;5049747;28;20010;-72
2022/01/02 11:50:28;;;;;;;;;;;10.90;98.80;;;;;;5051488;28;20225;-72
2022/01/02 11:53:11;;;;;;;;;;;10.90;98.80;;;;;;5048541;28;20029;-72
2022/01/02 11:55:37;;;;;;;;;;;11.00;98.80;;;;;;5039630;28;19966;-72
2022/01/02 11:58:03;;;;;;;;;;;11.00;98.70;;;;;;5049703;28;19916;-72
2022/01/02 12:00:34;;;;;;;;;;;11.00;98.70;;;;;;5039981;28;19912;-72
2022/01/02 12:03:00;;;;;;;;;;;11.00;98.70;;;;;;5047023;28;19912;-72
2022/01/02 12:05:25;;;;;;;;;;;11.00;98.70;;;;;;5051020;28;19924;-72
2022/01/02 12:07:54;;;;;;;;;;;11.00;98.80;;;;;;5045432;28;20012;-72
2022/01/02 12:10:20;;;;;;;;;;;11.00;98.80;;;;;;5046854;28;19944;-72
2022/01/02 12:13:06;;;;;;;;;;;11.00;98.70;;;;;;5046008;28;19939;-72
2022/01/02 12:15:34;;;;;;;;;;;11.10;98.80;;;;;;5049416;28;19927;-72
2022/01/02 12:18:09;;;;;;;;;;;11.00;98.70;;;;;;5045908;28;19913;-72
2022/01/02 12:21:06;;;;;;;;;;;11.10;98.80;;;;;;5046628;28;19916;-72
2022/01/02 12:23:35;;;;;;;;;;;11.10;98.80;;;;;;5006170;28;20250;-72
2022/01/02 12:26:12;;;;;;;;;;;11.10;98.80;;;;;;5046383;28;20583;-72
2022/01/02 12:28:39;;;;;;;;;;;11.10;98.80;;;;;;5044669;28;19982;-72
2022/01/02 12:31:05;;;;;;;;;;;11.10;98.80;;;;;;5046013;28;19913;-72
2022/01/02 12:33:31;;;;;;;;;;;11.10;98.90;;;;;;5045382;28;19917;-72
2022/01/02 12:35:57;;;;;;;;;;;11.10;98.90;;;;;;5042310;28;19913;-72
2022/01/02 12:38:22;;;;;;;;;;;11.10;98.90;;;;;;5045794;28;19924;-72
2022/01/02 12:40:49;;;;;;;;;;;11.10;98.90;;;;;;5049977;28;19919;-72
2022/01/02 12:43:22;;;;;;;;;;;11.10;99.00;;;;;;5045827;28;20357;-72
2022/01/02 12:45:53;;;;;;;;;;;11.00;99.00;;;;;;5050192;28;19967;-72
2022/01/02 12:48:30;;;;;;;;;;;11.10;99.00;;;;;;5045838;28;19936;-72
2022/01/02 12:51:06;;;;;;;;;;;11.10;99.00;;;;;;5050505;28;19927;-72
2022/01/02 12:53:32;;;;;;;;;;;11.00;99.00;;;;;;5048310;28;19952;-72
2022/01/02 12:55:57;;;;;;;;;;;11.00;99.00;;;;;;5051539;28;20005;-72
2022/01/02 12:58:23;;;;;;;;;;;11.10;99.10;;;;;;5047162;28;19955;-72
2022/01/02 13:00:49;;;;;;;;;;;11.00;99.10;;;;;;5047847;28;19996;-72
2022/01/02 13:03:18;;;;;;;;;;;11.00;99.10;;;;;;5048570;28;20248;-72
2022/01/02 13:05:50;;;;;;;;;;;11.00;99.10;;;;;;5047328;28;19923;-72
2022/01/02 13:08:21;;;;;;;;;;;11.00;99.10;;;;;;5048667;28;19917;-72
2022/01/02 13:10:47;;;;;;;;;;;11.00;99.10;;;;;;5049222;28;19921;-72
2022/01/02 13:13:25;;;;;;;;;;;11.00;99.10;;;;;;5052939;28;19927;-72
2022/01/02 13:15:51;;;;;;;;;;;11.00;99.10;;;;;;5045418;28;19917;-72
2022/01/02 13:18:16;;;;;;;;;;;11.10;99.10;;;;;;5050372;28;19920;-72
2022/01/02 13:20:43;;;;;;;;;;;11.00;99.10;;;;;;5059802;28;19915;-72
2022/01/02 13:23:08;;;;;;;;;;;11.00;99.10;;;;;;5048493;28;19917;-72
2022/01/02 13:25:38;;;;;;;;;;;11.00;99.10;;;;;;5045048;28;19919;-72
2022/01/02 13:28:06;;;;;;;;;;;11.00;99.20;;;;;;5051160;28;19920;-72
2022/01/02 13:30:48;;;;;;;;;;;11.00;99.10;;;;;;5047125;28;20010;-72
2022/01/02 13:33:21;;;;;;;;;;;11.10;99.10;;;;;;5033186;28;20034;-72
2022/01/02 13:35:47;;;;;;;;;;;11.00;99.10;;;;;;5046943;28;19995;-72
2022/01/02 13:38:13;;;;;;;;;;;11.00;99.10;;;;;;5038587;28;20370;-71
2022/01/02 13:40:39;;;;;;;;;;;11.00;99.10;;;;;;5044932;28;19917;-72
2022/01/02 13:43:07;;;;;;;;;;;11.00;99.10;;;;;;5045433;28;19916;-72
2022/01/02 13:45:33;;;;;;;;;;;11.00;99.00;;;;;;5043723;28;20477;-72
2022/01/02 13:48:22;;;;;;;;;;;11.10;99.00;;;;;;5048165;28;20354;-72
2022/01/02 13:50:52;;;;;;;;;;;11.10;99.00;;;;;;5022962;28;20273;-72
2022/01/02 13:53:18;;;;;;;;;;;11.10;99.00;;;;;;5050329;28;20585;-72
2022/01/02 13:55:45;;;;;;;;;;;11.10;99.00;;;;;;5047373;28;19917;-72
2022/01/02 13:58:16;;;;;;;;;;;11.10;99.00;;;;;;5052287;28;19917;-72
2022/01/02 14:00:45;;;;;;;;;;;11.10;99.00;;;;;;5042697;28;19919;-72
2022/01/02 14:03:23;;;;;;;;;;;11.10;99.00;;;;;;5051602;28;19917;-72
2022/01/02 14:05:50;;;;;;;;;;;11.10;99.00;;;;;;5047493;28;19936;-72
2022/01/02 14:08:16;;;;;;;;;;;11.10;99.00;;;;;;5048787;28;19979;-72
2022/01/02 14:10:42;;;;;;;;;;;11.10;99.00;;;;;;5063298;28;19913;-72
2022/01/02 14:13:12;;;;;;;;;;;11.10;99.00;;;;;;5047852;28;19923;-72
2022/01/02 14:15:37;;;;;;;;;;;11.10;99.00;;;;;;5035532;28;19921;-72
2022/01/02 14:18:04;;;;;;;;;;;11.10;99.00;;;;;;5049324;28;19919;-71
2022/01/02 14:20:35;;;;;;;;;;;11.10;99.10;;;;;;5046266;28;19951;-70
2022/01/02 14:23:02;;;;;;;;;;;11.10;98.90;;;;;;5048582;28;19913;-68
2022/01/02 14:25:27;;;;;;;;;;;11.20;98.90;;;;;;5051279;28;19924;-70
2022/01/02 14:27:53;;;;;;;;;;;11.20;98.80;;;;;;5046908;28;19917;-70